Time;durP1;ratioP1;P1;durP2;ratioP2;P2;SDS_P1;SDS_P2;PMS_P1;PMS_P2;Temp;Humidity;BMP_temperature;BMP_pressure;BME280_temperature;BME280_humidity;BME280_pressure;Samples;Min_cycle;Max_cycle;Signal;HPM_P1;HPM_P2
2023/04/19 00:00:47;;;;;;;16.27;13.38;;;9.70;99.90;;;8.77;100.00;98302.25;5011971;28;20054;-78
2023/04/19 00:03:16;;;;;;;21.02;13.38;;;9.70;99.90;;;8.69;100.00;98301.59;5027885;28;20243;-80
2023/04/19 00:05:43;;;;;;;16.30;12.88;;;9.70;99.90;;;8.72;100.00;98298.94;5026066;28;20414;-78
2023/04/19 00:08:10;;;;;;;18.10;13.60;;;9.70;99.90;;;8.70;100.00;98305.88;5042250;28;20200;-78
2023/04/19 00:10:38;;;;;;;16.92;12.65;;;9.60;99.90;;;8.80;100.00;98301.31;5037053;28;20045;-79
2023/04/19 00:13:06;;;;;;;18.80;13.52;;;9.70;99.90;;;8.77;100.00;98294.47;5040312;28;20050;-79
2023/04/19 00:15:33;;;;;;;15.43;12.23;;;9.60;99.90;;;8.63;100.00;98296.56;5036907;28;20434;-78
2023/04/19 00:18:01;;;;;;;15.45;12.77;;;9.70;99.90;;;8.62;100.00;98297.47;5042642;28;20076;-78
2023/04/19 00:20:28;;;;;;;16.20;12.73;;;9.60;99.90;;;8.58;100.00;98301.84;5028659;28;20049;-79
2023/04/19 00:22:57;;;;;;;16.75;13.10;;;9.60;99.90;;;8.54;100.00;98295.03;5021781;28;20513;-79
2023/04/19 00:25:27;;;;;;;17.45;12.93;;;9.50;99.90;;;8.51;100.00;98292.50;5035195;28;20505;-79
2023/04/19 00:27:54;;;;;;;16.65;12.43;;;9.50;99.90;;;8.52;100.00;98296.78;5040262;28;20099;-79
2023/04/19 00:30:21;;;;;;;15.10;12.10;;;9.50;99.90;;;8.51;100.00;98299.44;5037012;28;20045;-78
2023/04/19 00:32:48;;;;;;;15.13;12.25;;;9.50;99.90;;;8.46;100.00;98293.50;5038617;28;20046;-79
2023/04/19 00:35:15;;;;;;;17.90;12.50;;;9.40;99.90;;;8.49;100.00;98302.03;5054677;28;20053;-78
2023/04/19 00:37:45;;;;;;;16.15;12.43;;;9.40;99.90;;;8.51;100.00;98299.44;5023312;28;20051;-79
2023/04/19 00:40:13;;;;;;;14.77;12.18;;;9.40;99.90;;;8.55;100.00;98301.91;5039913;28;20084;-78
2023/04/19 00:42:41;;;;;;;14.90;11.75;;;9.50;99.90;;;8.52;100.00;98298.53;5038680;28;20049;-78
2023/04/19 00:45:10;;;;;;;15.95;12.57;;;9.50;99.90;;;8.45;100.00;98295.22;5025350;28;20060;-78
2023/04/19 00:47:37;;;;;;;17.38;11.93;;;9.50;99.90;;;8.41;100.00;98300.50;5042763;28;20056;-78
2023/04/19 00:50:06;;;;;;;16.73;12.05;;;9.40;99.90;;;8.47;100.00;98290.03;5020593;28;20114;-79
2023/04/19 00:52:35;;;;;;;14.55;11.43;;;9.40;99.90;;;8.47;100.00;98292.63;5030874;28;20413;-79
2023/04/19 00:55:04;;;;;;;14.35;11.82;;;9.30;99.90;;;8.39;100.00;98290.16;5028544;28;20618;-78
2023/04/19 00:57:32;;;;;;;15.35;12.30;;;9.40;99.90;;;8.50;100.00;98288.22;5012447;28;20515;-78
2023/04/19 01:00:00;;;;;;;15.35;11.23;;;9.30;99.90;;;8.47;100.00;98290.03;5042836;28;20046;-78
2023/04/19 01:02:27;;;;;;;14.63;11.43;;;9.30;99.90;;;8.38;100.00;98286.72;5037686;28;20045;-78
2023/04/19 01:04:55;;;;;;;14.80;11.30;;;9.40;99.90;;;8.36;100.00;98292.81;5042355;28;20049;-79
2023/04/19 01:07:22;;;;;;;14.18;11.20;;;9.30;99.90;;;8.32;100.00;98283.41;5024413;28;20080;-78
2023/04/19 01:09:50;;;;;;;15.50;10.40;;;9.30;99.90;;;8.29;100.00;98286.94;5042194;28;20049;-78
2023/04/19 01:12:17;;;;;;;14.75;10.15;;;9.30;99.90;;;8.31;100.00;98280.00;5027492;28;20497;-78
2023/04/19 01:14:44;;;;;;;12.07;9.70;;;9.20;99.90;;;8.31;100.00;98284.31;5043900;28;20048;-78
2023/04/19 01:17:13;;;;;;;13.07;9.57;;;9.30;99.90;;;8.35;100.00;98280.78;5024642;28;20420;-78
2023/04/19 01:19:41;;;;;;;13.63;9.52;;;9.20;99.90;;;8.31;100.00;98276.56;5029257;28;20081;-78
2023/04/19 01:22:08;;;;;;;13.15;10.18;;;9.20;99.90;;;8.26;100.00;98275.81;5044341;28;20053;-78
2023/04/19 01:24:36;;;;;;;12.85;9.63;;;9.20;99.90;;;8.23;100.00;98271.53;5040915;28;20060;-79
2023/04/19 01:27:03;;;;;;;11.93;10.18;;;9.20;99.90;;;8.30;100.00;98272.25;5039878;28;20050;-78
2023/04/19 01:29:31;;;;;;;13.10;9.82;;;9.20;99.90;;;8.23;100.00;98279.28;5032209;28;20129;-79
2023/04/19 01:31:58;;;;;;;13.18;10.40;;;9.20;99.90;;;8.30;100.00;98272.25;5043608;28;20049;-78
2023/04/19 01:34:25;;;;;;;13.25;10.32;;;9.20;99.90;;;8.21;100.00;98268.16;5027990;28;20049;-78
2023/04/19 01:36:52;;;;;;;13.15;10.73;;;9.20;99.90;;;8.18;100.00;98274.22;5040034;28;20063;-78
2023/04/19 01:39:19;;;;;;;15.38;11.43;;;9.10;99.90;;;8.21;100.00;98264.69;5040398;28;20582;-81
2023/04/19 01:41:46;;;;;;;14.68;11.75;;;9.20;99.90;;;8.18;100.00;98263.88;5043476;28;20060;-78
2023/04/19 01:44:13;;;;;;;14.93;11.52;;;9.10;99.90;;;8.15;100.00;98265.69;5041025;28;20053;-79
2023/04/19 01:46:41;;;;;;;15.13;11.73;;;9.10;99.90;;;8.20;100.00;98270.78;5040439;28;20057;-78
2023/04/19 01:49:08;;;;;;;14.52;11.02;;;9.10;99.90;;;8.13;100.00;98264.88;5042073;28;20053;-79
2023/04/19 01:51:37;;;;;;;15.25;11.32;;;9.10;99.90;;;8.10;100.00;98262.38;5035616;28;20046;-79
2023/04/19 01:54:04;;;;;;;15.77;11.75;;;9.10;99.90;;;8.10;100.00;98259.78;5040949;28;20144;-79
2023/04/19 01:56:32;;;;;;;15.27;11.10;;;9.10;99.90;;;8.11;100.00;98264.06;5043631;28;20041;-78
2023/04/19 01:58:59;;;;;;;14.45;11.18;;;9.10;99.90;;;8.14;100.00;98267.44;5040651;28;20055;-79
2023/04/19 02:01:26;;;;;;;15.60;10.98;;;9.00;99.90;;;8.06;100.00;98264.16;5043371;28;20098;-79
2023/04/19 02:03:53;;;;;;;15.02;10.85;;;9.00;99.90;;;8.03;100.00;98250.44;5047450;28;20121;-78
2023/04/19 02:06:20;;;;;;;14.95;10.68;;;9.00;99.90;;;8.07;100.00;98257.25;5038966;28;20045;-78
2023/04/19 02:08:48;;;;;;;14.65;11.27;;;9.00;99.90;;;7.98;100.00;98263.47;5043556;28;20076;-79
2023/04/19 02:11:15;;;;;;;13.52;10.45;;;9.00;99.90;;;8.01;100.00;98263.41;5035049;28;20067;-79
2023/04/19 02:13:42;;;;;;;13.07;10.48;;;9.00;99.90;;;7.99;100.00;98254.84;5039365;28;20500;-79
2023/04/19 02:16:10;;;;;;;15.00;9.30;;;9.00;99.90;;;8.01;100.00;98260.81;5040529;28;20516;-79
2023/04/19 02:18:41;;;;;;;13.55;9.90;;;9.00;99.90;;;7.96;100.00;98255.75;5036844;28;20057;-78
2023/04/19 02:21:09;;;;;;;13.25;10.10;;;9.00;99.90;;;8.06;100.00;98256.41;5027484;28;20522;-78
2023/04/19 02:23:37;;;;;;;12.82;10.35;;;9.00;99.90;;;8.08;100.00;98252.06;5024853;28;20268;-78
2023/04/19 02:26:04;;;;;;;14.07;9.68;;;8.90;99.90;;;7.99;100.00;98247.09;5041470;28;20041;-79
2023/04/19 02:28:32;;;;;;;15.02;10.27;;;9.00;99.90;;;7.97;100.00;98260.03;5024471;28;20049;-79
2023/04/19 02:31:04;;;;;;;14.68;10.38;;;9.00;99.90;;;7.89;100.00;98251.59;5010184;28;20049;-78
2023/04/19 02:33:31;;;;;;;12.50;9.35;;;8.90;99.90;;;7.86;100.00;98246.47;5042495;28;20049;-78
2023/04/19 02:35:59;;;;;;;13.93;10.82;;;8.90;99.90;;;7.96;100.00;98258.34;5029002;28;20127;-79
2023/04/19 02:38:26;;;;;;;11.18;8.85;;;8.90;99.90;;;7.88;100.00;98247.31;5040805;28;20143;-79
2023/04/19 02:40:53;;;;;;;14.57;10.27;;;8.90;99.90;;;7.99;100.00;98257.41;5028129;28;20403;-79
2023/04/19 02:43:20;;;;;;;13.68;9.65;;;8.90;99.90;;;7.96;100.00;98260.09;5039149;28;20061;-79
2023/04/19 02:45:48;;;;;;;13.80;10.25;;;8.90;99.90;;;7.97;100.00;98254.00;5039108;28;20075;-79
2023/04/19 02:48:15;;;;;;;10.82;9.35;;;8.80;99.90;;;7.95;100.00;98255.78;5037175;28;20502;-78
2023/04/19 02:50:42;;;;;;;13.30;9.60;;;8.90;99.90;;;7.97;100.00;98254.84;5039033;28;20046;-78
2023/04/19 02:53:09;;;;;;;10.70;8.43;;;8.90;99.90;;;7.89;100.00;98249.03;5034894;28;20053;-78
2023/04/19 02:55:39;;;;;;;12.98;9.40;;;8.90;99.90;;;7.85;100.00;98254.28;5027185;28;21908;-78
2023/04/19 02:58:07;;;;;;;11.13;8.90;;;8.90;99.90;;;7.90;100.00;98248.13;5040595;28;20061;-79
2023/04/19 03:00:34;;;;;;;12.60;9.35;;;8.90;99.90;;;7.84;100.00;98249.97;5040021;28;20052;-78
2023/04/19 03:03:03;;;;;;;10.60;8.40;;;8.80;99.90;;;7.93;100.00;98254.97;5035203;28;20087;-78
2023/04/19 03:05:30;;;;;;;12.48;9.63;;;8.80;99.90;;;7.92;100.00;98251.53;5029310;28;20045;-78
2023/04/19 03:07:58;;;;;;;11.57;8.52;;;8.80;99.90;;;7.97;100.00;98247.09;5037468;28;20081;-79
2023/04/19 03:10:25;;;;;;;14.07;9.25;;;8.90;99.90;;;7.99;100.00;98246.25;5038320;28;20054;-78
2023/04/19 03:12:52;;;;;;;14.55;9.00;;;8.90;99.90;;;7.95;100.00;98248.88;5035849;28;20041;-78
2023/04/19 03:15:21;;;;;;;11.93;8.93;;;8.90;99.90;;;7.95;100.00;98248.88;5024078;28;20047;-78
2023/04/19 03:17:48;;;;;;;11.93;9.00;;;8.90;99.90;;;7.82;100.00;98250.00;5026450;28;20140;-78
2023/04/19 03:20:16;;;;;;;11.40;8.70;;;8.90;99.90;;;7.97;100.00;98243.69;5039203;28;20106;-79
2023/04/19 03:22:43;;;;;;;13.98;9.10;;;8.90;99.90;;;7.95;100.00;98242.84;5040421;28;20073;-78
2023/04/19 03:25:12;;;;;;;13.45;9.15;;;8.80;99.90;;;7.94;100.00;98243.75;5024972;28;20050;-78
2023/04/19 03:27:39;;;;;;;11.63;8.10;;;8.80;99.90;;;7.85;100.00;98238.78;5044557;28;20081;-78
2023/04/19 03:30:07;;;;;;;11.48;8.10;;;8.80;99.90;;;7.85;100.00;98238.78;5046703;28;20048;-78
2023/04/19 03:32:34;;;;;;;11.68;9.40;;;8.90;99.90;;;7.87;100.00;98237.00;5043363;28;20113;-78
2023/04/19 03:35:02;;;;;;;11.98;8.85;;;8.80;99.90;;;7.83;100.00;98233.63;5047232;28;20502;-79
2023/04/19 03:37:29;;;;;;;11.02;7.80;;;8.80;99.90;;;7.87;100.00;98231.84;5029899;28;20068;-79
2023/04/19 03:39:56;;;;;;;11.23;9.00;;;8.80;99.90;;;7.83;100.00;98235.38;5042783;28;20402;-79
2023/04/19 03:42:23;;;;;;;10.85;8.35;;;8.80;99.90;;;7.84;100.00;98232.72;5046304;28;20521;-79
2023/04/19 03:44:54;;;;;;;13.07;8.20;;;8.80;99.90;;;7.80;100.00;98235.41;5044561;28;20219;-78
2023/04/19 03:47:21;;;;;;;11.07;8.05;;;8.70;99.90;;;7.83;100.00;98218.13;5047230;28;20061;-78
2023/04/19 03:49:49;;;;;;;9.90;8.10;;;8.80;99.90;;;7.83;100.00;98222.44;5045850;28;20045;-79
2023/04/19 03:52:16;;;;;;;10.63;7.65;;;8.70;99.90;;;7.84;100.00;98214.63;5047028;28;20068;-78
2023/04/19 03:54:45;;;;;;;10.05;7.38;;;8.70;99.90;;;7.74;100.00;98219.16;5031574;28;20657;-78
2023/04/19 03:57:14;;;;;;;10.35;7.93;;;8.70;99.90;;;7.69;100.00;98221.00;5011340;28;20052;-79
2023/04/19 03:59:41;;;;;;;11.15;7.97;;;8.70;99.90;;;7.75;100.00;98215.72;5046296;28;20044;-78
2023/04/19 04:02:08;;;;;;;14.48;8.30;;;8.60;99.90;;;7.66;100.00;98225.38;5027730;28;20057;-78
2023/04/19 04:04:35;;;;;;;11.13;8.15;;;8.70;99.90;;;7.70;100.00;98220.09;5043443;28;20167;-78
2023/04/19 04:07:03;;;;;;;12.65;8.40;;;8.70;99.90;;;7.73;100.00;98220.06;5049135;28;20100;-78
2023/04/19 04:09:30;;;;;;;11.75;8.25;;;8.70;99.90;;;7.73;100.00;98220.06;5043053;28;20057;-78
2023/04/19 04:11:57;;;;;;;12.98;7.90;;;8.70;99.90;;;7.68;100.00;98227.03;5027969;28;20402;-78
2023/04/19 04:14:24;;;;;;;12.85;8.90;;;8.60;99.90;;;7.69;100.00;98218.41;5041204;28;20128;-78
2023/04/19 04:16:51;;;;;;;9.93;7.43;;;8.60;99.90;;;7.78;100.00;98225.13;5047878;28;20049;-79
2023/04/19 04:19:20;;;;;;;10.07;7.57;;;8.70;99.90;;;7.73;100.00;98219.19;5042068;28;20060;-78
2023/04/19 04:21:48;;;;;;;12.48;8.32;;;8.60;99.90;;;7.73;100.00;98225.22;5042739;28;20053;-78
2023/04/19 04:24:16;;;;;;;10.50;7.18;;;8.60;99.90;;;7.73;100.00;98219.19;5045575;28;20080;-79
2023/04/19 04:26:43;;;;;;;12.10;7.50;;;8.70;99.90;;;7.71;100.00;98218.41;5048141;28;20045;-79
2023/04/19 04:29:13;;;;;;;9.27;7.28;;;8.70;99.90;;;7.68;100.00;98224.44;5032409;28;20068;-78
2023/04/19 04:31:40;;;;;;;9.07;7.13;;;8.60;99.90;;;7.69;100.00;98227.91;5038505;28;20064;-78
2023/04/19 04:34:08;;;;;;;10.38;7.03;;;8.70;99.90;;;7.69;100.00;98226.16;5038863;28;20051;-78
2023/04/19 04:36:36;;;;;;;10.07;6.57;;;8.70;99.90;;;7.67;100.00;98227.09;5039682;28;20052;-78
2023/04/19 04:39:05;;;;;;;9.85;7.40;;;8.70;99.90;;;7.68;100.00;98228.78;5042468;28;20041;-78
2023/04/19 04:41:34;;;;;;;10.95;7.93;;;8.70;99.90;;;7.59;100.00;98227.22;5046554;28;20060;-78
2023/04/19 04:44:03;;;;;;;15.13;7.95;;;8.60;99.90;;;7.67;100.00;98227.09;5041484;28;20777;-79
2023/04/19 04:46:39;;;;;;;8.65;6.63;;;8.60;99.90;;;7.66;100.00;98227.94;5040200;28;20425;-78
2023/04/19 04:49:07;;;;;;;10.98;7.57;;;8.60;99.90;;;7.63;100.00;98230.59;5039472;28;20063;-78
2023/04/19 04:51:36;;;;;;;11.02;6.80;;;8.60;99.90;;;7.67;100.00;98229.66;5038690;28;20053;-78
2023/04/19 04:54:04;;;;;;;10.05;7.75;;;8.60;99.90;;;7.74;100.00;98226.06;5037295;28;20047;-78
2023/04/19 04:56:31;;;;;;;9.73;7.40;;;8.60;99.90;;;7.71;100.00;98232.16;5025430;28;20050;-78
2023/04/19 04:58:58;;;;;;;10.85;7.55;;;8.60;99.90;;;7.72;100.00;98233.00;5025733;28;20049;-78
2023/04/19 05:01:25;;;;;;;8.52;6.78;;;8.60;99.90;;;7.78;100.00;98229.44;5021077;28;20055;-78
2023/04/19 05:03:53;;;;;;;10.98;8.18;;;8.70;99.90;;;7.74;100.00;98233.81;5039300;28;20761;-79
2023/04/19 05:06:20;;;;;;;10.25;7.55;;;8.70;99.90;;;7.83;100.00;98232.78;5051545;28;20394;-79
2023/04/19 05:08:47;;;;;;;9.27;7.35;;;8.70;99.90;;;7.90;100.00;98231.78;5040100;28;20369;-78
2023/04/19 05:11:15;;;;;;;10.48;7.28;;;8.80;99.90;;;7.90;100.00;98229.19;5024376;28;20049;-79
2023/04/19 05:13:42;;;;;;;10.10;7.43;;;8.80;99.90;;;7.90;100.00;98224.00;5036406;28;20049;-78
2023/04/19 05:16:09;;;;;;;10.15;7.80;;;8.90;99.90;;;7.82;100.00;98224.16;5040119;28;20108;-79
2023/04/19 05:18:37;;;;;;;10.38;7.30;;;8.80;99.90;;;7.89;100.00;98227.47;5042958;28;20045;-78
2023/04/19 05:21:05;;;;;;;10.65;7.60;;;8.80;99.90;;;7.79;100.00;98232.00;5046010;28;20050;-79
2023/04/19 05:23:32;;;;;;;10.30;7.60;;;8.80;99.90;;;7.81;100.00;98245.72;5040523;28;20063;-78
2023/04/19 05:25:59;;;;;;;10.52;7.85;;;8.80;99.90;;;7.78;100.00;98243.22;5046567;28;20424;-79
2023/04/19 05:28:26;;;;;;;9.43;7.43;;;8.70;99.90;;;7.90;100.00;98247.28;5042926;28;20056;-78
2023/04/19 05:30:53;;;;;;;13.23;8.20;;;8.80;99.90;;;7.88;100.00;98238.69;5039692;28;20049;-79
2023/04/19 05:33:21;;;;;;;11.25;8.45;;;8.80;99.90;;;7.85;100.00;98252.53;5025632;28;20056;-78
2023/04/19 05:35:47;;;;;;;9.63;6.82;;;8.80;99.90;;;7.84;100.00;98256.00;5041264;28;20151;-78
2023/04/19 05:38:15;;;;;;;9.70;7.30;;;8.80;99.90;;;7.88;100.00;98243.88;5038168;28;20067;-79
2023/04/19 05:40:42;;;;;;;9.98;7.35;;;8.80;99.90;;;7.88;100.00;98249.88;5045365;28;20436;-78
2023/04/19 05:43:10;;;;;;;12.32;7.40;;;8.80;99.90;;;7.94;100.00;98243.75;5046320;28;20152;-78
2023/04/19 05:45:37;;;;;;;14.52;8.60;;;8.80;99.90;;;8.10;100.00;98245.13;5043041;28;20057;-79
2023/04/19 05:48:06;;;;;;;9.88;8.15;;;8.80;99.90;;;8.21;100.00;98244.88;5042280;28;20041;-79
2023/04/19 05:50:37;;;;;;;11.18;7.95;;;8.90;99.90;;;8.15;100.00;98242.44;5043330;28;20048;-78
2023/04/19 05:53:04;;;;;;;9.73;7.88;;;9.00;99.90;;;8.15;100.00;98242.44;5044869;28;20049;-79
2023/04/19 05:55:31;;;;;;;9.15;7.25;;;9.10;99.90;;;8.13;100.00;98239.88;5029522;28;20424;-79
2023/04/19 05:57:58;;;;;;;10.32;7.10;;;9.10;99.90;;;8.11;100.00;98239.03;5041246;28;20065;-79
2023/04/19 06:00:27;;;;;;;13.15;8.65;;;9.10;99.90;;;8.25;100.00;98249.06;5040288;28;20052;-79
2023/04/19 06:02:54;;;;;;;11.25;8.18;;;9.00;99.90;;;8.26;100.00;98243.03;5026924;28;20057;-79
2023/04/19 06:05:22;;;;;;;10.45;7.05;;;9.10;99.90;;;8.22;100.00;98243.16;5046917;28;20056;-79
2023/04/19 06:07:49;;;;;;;10.43;7.97;;;9.10;99.90;;;8.32;100.00;98245.47;5044044;28;20091;-78
2023/04/19 06:10:27;;;;;;;13.38;7.57;;;9.20;99.90;;;8.35;100.00;98242.84;5041908;28;20091;-78
2023/04/19 06:13:15;;;;;;;10.52;7.80;;;9.20;99.90;;;8.56;100.00;98238.91;5041091;28;20064;-79
2023/04/19 06:15:43;;;;;;;9.90;7.72;;;9.30;99.90;;;8.54;100.00;98240.69;5037595;28;20041;-78
2023/04/19 06:18:10;;;;;;;12.38;8.40;;;9.30;99.90;;;8.70;100.00;98245.50;5037276;28;20053;-79
2023/04/19 06:20:46;;;;;;;10.75;7.85;;;9.40;99.90;;;8.45;100.00;98240.91;5040535;28;20064;-79
2023/04/19 06:23:13;;;;;;;13.32;8.15;;;9.40;99.90;;;8.47;100.00;98238.28;5025440;28;20053;-79
2023/04/19 06:25:41;;;;;;;13.35;9.27;;;9.50;99.90;;;8.61;100.00;98238.81;5044156;28;20048;-79
2023/04/19 06:28:08;;;;;;;11.82;7.82;;;9.50;99.90;;;8.74;100.00;98240.22;5043841;28;20057;-79
2023/04/19 06:30:37;;;;;;;11.35;8.40;;;9.50;99.90;;;8.58;100.00;98241.47;5025386;28;20087;-79
2023/04/19 06:33:04;;;;;;;11.10;8.20;;;9.60;99.90;;;8.72;100.00;98243.72;5022515;28;20429;-79
2023/04/19 06:35:31;;;;;;;11.27;8.65;;;9.50;99.90;;;8.77;100.00;98237.53;5025795;28;20136;-79
2023/04/19 06:37:58;;;;;;;15.05;9.75;;;9.60;99.90;;;8.71;100.00;98223.91;5027687;28;20045;-79
2023/04/19 06:40:28;;;;;;;11.63;9.13;;;9.60;99.90;;;8.92;100.00;98230.28;5028518;28;20119;-79
2023/04/19 06:42:55;;;;;;;13.25;8.38;;;9.60;99.90;;;9.02;100.00;98234.34;5039500;28;20143;-79
2023/04/19 06:45:23;;;;;;;11.82;8.45;;;9.70;99.90;;;9.01;100.00;98240.41;5042382;28;20073;-79
2023/04/19 06:47:50;;;;;;;11.90;8.30;;;9.80;99.90;;;9.00;100.00;98226.59;5042501;28;20060;-79
2023/04/19 06:50:17;;;;;;;9.45;7.70;;;9.90;99.90;;;9.08;100.00;98220.41;5029784;28;20049;-79
2023/04/19 06:52:44;;;;;;;12.45;9.18;;;9.90;99.90;;;9.21;100.00;98214.84;5023851;28;20052;-79
2023/04/19 06:55:11;;;;;;;13.20;9.35;;;9.90;99.90;;;9.49;100.00;98215.81;5046660;28;20160;-79
2023/04/19 06:57:38;;;;;;;11.48;8.43;;;10.00;99.90;;;9.53;100.00;98209.66;5023656;28;20055;-79
2023/04/19 07:00:07;;;;;;;11.55;8.82;;;10.20;99.90;;;9.99;100.00;98205.69;5042435;28;20045;-80
2023/04/19 07:02:34;;;;;;;10.55;7.88;;;10.30;99.90;;;9.88;100.00;98192.25;5045645;28;20073;-78
2023/04/19 07:05:02;;;;;;;13.73;8.07;;;10.50;99.90;;;9.69;100.00;98200.53;5022931;28;20045;-79
2023/04/19 07:07:29;;;;;;;13.68;9.10;;;10.60;99.90;;;9.53;100.00;98192.34;5010165;28;20056;-79
2023/04/19 07:09:58;;;;;;;11.90;8.50;;;10.60;99.90;;;9.52;100.00;98197.59;5043776;28;20045;-79
2023/04/19 07:12:25;;;;;;;12.20;9.30;;;10.50;99.90;;;9.93;100.00;98201.56;5026923;28;20169;-79
2023/04/19 07:14:55;;;;;;;13.27;8.73;;;10.50;99.90;;;9.87;100.00;98190.53;5027211;28;20091;-79
2023/04/19 07:17:23;;;;;;;12.77;9.40;;;10.60;99.90;;;9.92;100.00;98193.81;5040467;28;20118;-79
2023/04/19 07:19:50;;;;;;;12.95;9.35;;;10.60;99.90;;;9.87;100.00;98181.00;5028236;28;20049;-79
2023/04/19 07:22:17;;;;;;;11.30;8.73;;;10.60;99.90;;;9.95;100.00;98186.81;5041822;28;20433;-79
2023/04/19 07:24:45;;;;;;;13.00;9.15;;;10.80;99.90;;;10.15;100.00;98186.22;5046152;28;20072;-79
2023/04/19 07:27:13;;;;;;;11.43;8.50;;;10.80;99.90;;;10.05;100.00;98175.25;5042937;28;20153;-80
2023/04/19 07:29:40;;;;;;;10.93;8.85;;;10.80;99.90;;;10.16;100.00;98179.28;5037042;28;20083;-79
2023/04/19 07:32:08;;;;;;;12.10;8.70;;;10.90;99.90;;;9.99;100.00;98175.47;5036483;28;20518;-79
2023/04/19 07:34:37;;;;;;;11.38;8.52;;;10.90;99.90;;;9.86;100.00;98170.69;5060167;28;20060;-80
2023/04/19 07:37:04;;;;;;;11.45;8.25;;;10.90;99.90;;;9.89;100.00;98160.22;5043252;28;20041;-79
2023/04/19 07:39:33;;;;;;;12.30;9.48;;;10.80;99.90;;;10.38;100.00;98158.72;5025149;28;20466;-80
2023/04/19 07:42:00;;;;;;;12.77;8.75;;;10.90;99.90;;;10.23;100.00;98162.59;5042296;28;20065;-80
2023/04/19 07:44:28;;;;;;;10.57;8.65;;;11.10;99.90;;;10.31;100.00;98154.59;5044684;28;20053;-79
2023/04/19 07:47:12;;;;;;;12.95;9.00;;;11.20;99.90;;;10.26;100.00;98155.59;5017662;28;20187;-79
2023/04/19 07:49:39;;;;;;;11.55;8.27;;;11.20;99.90;;;10.21;100.00;98157.47;5020544;28;20140;-79
2023/04/19 07:52:07;;;;;;;13.05;8.63;;;11.20;99.90;;;10.17;100.00;98150.69;5042178;28;20162;-79
2023/04/19 07:54:34;;;;;;;12.90;9.23;;;11.20;99.90;;;10.53;100.00;98152.16;5041281;28;20048;-79
2023/04/19 07:57:02;;;;;;;12.05;9.13;;;;;;;10.58;100.00;98153.72;5042519;28;20052;-79
2023/04/19 07:59:32;;;;;;;10.82;8.23;;;11.40;99.90;;;10.84;100.00;98141.59;5050040;28;20053;-79
2023/04/19 08:02:00;;;;;;;10.93;8.10;;;11.50;99.90;;;10.75;100.00;98140.16;5045904;28;20411;-79
2023/04/19 08:04:27;;;;;;;9.90;7.32;;;11.70;99.90;;;10.78;100.00;98129.66;5042129;28;20049;-80
2023/04/19 08:06:55;;;;;;;11.45;8.13;;;11.80;99.90;;;10.89;100.00;98132.72;5049591;28;20056;-80
2023/04/19 08:09:23;;;;;;;14.13;8.57;;;11.70;99.90;;;10.97;100.00;98134.19;5042042;28;20065;-79
2023/04/19 08:11:52;;;;;;;11.70;8.57;;;11.80;99.90;;;11.08;100.00;98135.53;5029865;28;20123;-79
2023/04/19 08:14:19;;;;;;;12.40;8.15;;;11.80;99.90;;;10.60;100.00;98144.09;5050607;28;20053;-80
2023/04/19 08:17:06;;;;;;;13.30;9.13;;;11.70;99.90;;;10.58;100.00;98142.47;5031450;28;20092;-79
2023/04/19 08:19:52;;;;;;;10.02;8.23;;;11.60;99.90;;;10.51;100.00;98134.03;5037378;28;20052;-79
2023/04/19 08:22:20;;;;;;;11.60;8.60;;;11.60;99.90;;;10.67;100.00;98136.97;5043980;28;20138;-79
2023/04/19 08:24:51;;;;;;;12.98;9.23;;;11.60;99.90;;;10.46;100.00;98136.78;5026346;28;20061;-79
2023/04/19 08:27:22;;;;;;;10.35;7.95;;;11.50;99.90;;;10.82;100.00;98138.19;5049274;28;20049;-79
2023/04/19 08:29:49;;;;;;;11.77;9.18;;;11.60;99.90;;;10.96;100.00;98137.72;5030685;28;20133;-79
2023/04/19 08:32:16;;;;;;;11.20;8.02;;;11.70;99.90;;;10.82;100.00;98136.44;5044506;28;20049;-80
2023/04/19 08:34:45;;;;;;;10.38;8.32;;;11.70;99.90;;;10.77;100.00;98138.34;5025761;28;20111;-79
2023/04/19 08:37:13;;;;;;;10.07;7.60;;;11.50;99.90;;;10.38;100.00;98143.16;5045760;28;20111;-80
2023/04/19 08:39:40;;;;;;;11.80;8.63;;;11.40;99.90;;;10.08;100.00;98157.91;5039669;28;20167;-80
2023/04/19 08:42:10;;;;;;;10.15;8.40;;;11.30;99.90;;;10.31;100.00;98149.41;5033592;28;20131;-80
2023/04/19 08:45:02;;;;;;;11.32;7.88;;;11.20;99.90;;;10.38;100.00;98154.38;5044327;28;20420;-80
2023/04/19 08:47:49;;;;;;;10.57;8.23;;;11.10;99.90;;;10.26;100.00;98158.19;5034510;28;20053;-79
2023/04/19 08:50:29;;;;;;;11.10;8.70;;;11.20;99.90;;;10.19;100.00;98153.22;5032253;28;20051;-79
2023/04/19 08:53:16;;;;;;;10.27;8.27;;;11.20;99.90;;;9.83;100.00;98150.91;5044848;28;20053;-79
2023/04/19 08:55:57;;;;;;;10.50;8.35;;;11.00;99.90;;;10.23;100.00;98154.81;5043579;28;20076;-79
2023/04/19 08:58:29;;;;;;;11.98;9.52;;;11.00;99.90;;;10.37;100.00;98152.66;5027708;28;20060;-80
2023/04/19 09:01:12;;;;;;;11.82;8.57;;;11.00;99.90;;;10.08;100.00;98151.00;5033202;28;20111;-80
2023/04/19 09:03:59;;;;;;;12.82;9.55;;;11.10;99.90;;;10.04;100.00;98147.63;5013285;28;20081;-80
2023/04/19 09:06:42;;;;;;;12.30;9.70;;;11.00;99.90;;;10.16;100.00;98151.56;5044287;28;20111;-80
2023/04/19 09:09:18;;;;;;;13.88;10.40;;;11.00;99.90;;;10.25;100.00;98147.84;5047041;28;20091;-79
2023/04/19 09:12:03;;;;;;;13.13;9.70;;;11.00;99.90;;;10.29;100.00;98144.28;5042504;28;20085;-80
2023/04/19 09:14:31;;;;;;;12.10;9.85;;;11.00;99.90;;;10.12;100.00;98138.75;5044071;28;20592;-80
2023/04/19 09:17:15;;;;;;;11.20;9.63;;;11.10;99.90;;;10.19;100.00;98140.25;5043190;28;20049;-80
2023/04/19 09:19:46;;;;;;;14.93;11.95;;;11.00;99.90;;;10.20;100.00;98148.00;5030657;28;20067;-79
2023/04/19 09:22:14;;;;;;;15.57;11.27;;;11.00;99.90;;;10.16;100.00;98156.75;5025897;28;20106;-79
2023/04/19 09:24:41;;;;;;;16.55;12.20;;;11.00;99.90;;;10.49;100.00;98147.97;5042122;28;20045;-79
2023/04/19 09:27:12;;;;;;;14.45;11.27;;;11.10;99.90;;;10.54;100.00;98140.91;5042207;28;20041;-80
2023/04/19 09:29:40;;;;;;;15.70;12.35;;;11.30;99.90;;;10.88;100.00;98138.84;5035500;28;21699;-78
2023/04/19 09:32:07;;;;;;;15.25;12.25;;;11.40;99.90;;;11.20;100.00;98123.84;5023899;28;20276;-78
2023/04/19 09:34:34;;;;;;;15.48;12.38;;;11.60;99.90;;;11.52;100.00;98119.22;5024538;28;20075;-80
2023/04/19 09:37:20;;;;;;;16.75;11.13;;;11.90;99.90;;;11.54;100.00;98101.81;5026838;28;20045;-78
2023/04/19 09:40:26;;;;;;;13.40;10.32;;;12.10;99.90;;;11.47;100.00;98096.00;5038600;28;20044;-77
2023/04/19 09:42:54;;;;;;;17.80;10.48;;;12.30;99.90;;;11.98;100.00;98088.84;5028062;28;20048;-77
2023/04/19 09:45:45;;;;;;;12.43;9.20;;;12.40;99.90;;;11.14;100.00;98090.28;5025886;28;20049;-78
2023/04/19 09:48:12;;;;;;;9.73;8.63;;;12.30;99.90;;;11.13;100.00;98082.53;5020896;28;20072;-78
2023/04/19 09:50:59;;;;;;;12.27;8.68;;;12.20;99.90;;;11.34;100.00;98091.31;5039842;28;20394;-79
2023/04/19 09:53:38;;;;;;;11.38;8.93;;;12.20;99.90;;;11.60;100.00;98078.16;5043187;28;20456;-78
2023/04/19 09:56:11;;;;;;;11.13;9.20;;;12.20;99.90;;;11.60;100.00;98070.34;5041963;28;20152;-78
2023/04/19 09:58:38;;;;;;;12.07;9.07;;;12.40;99.90;;;12.12;100.00;98064.88;5054042;28;20128;-79
2023/04/19 10:01:25;;;;;;;16.25;8.80;;;12.50;99.90;;;11.81;100.00;98067.81;5042952;28;20053;-79
2023/04/19 10:03:53;;;;;;;10.57;8.63;;;12.60;99.90;;;11.60;100.00;98059.97;5028317;28;20363;-78
2023/04/19 10:06:21;;;;;;;11.32;8.27;;;12.60;99.90;;;11.87;100.00;98054.59;5028593;28;20049;-79
2023/04/19 10:08:54;;;;;;;11.48;9.05;;;12.50;99.90;;;11.49;100.00;98065.59;5028402;28;20531;-80
2023/04/19 10:11:26;;;;;;;10.38;8.70;;;12.50;99.90;;;11.80;100.00;98055.75;5042436;28;20099;-78
2023/04/19 10:13:59;;;;;;;10.93;8.95;;;12.50;99.90;;;12.01;100.00;98054.91;5040448;28;20102;-80
2023/04/19 10:16:28;;;;;;;10.73;7.78;;;12.60;99.90;;;12.07;100.00;98057.25;5043290;28;20040;-79
2023/04/19 10:18:56;;;;;;;11.13;7.90;;;12.70;99.90;;;11.73;100.00;98057.72;5042994;28;20045;-77
2023/04/19 10:21:28;;;;;;;9.70;7.00;;;12.70;99.90;;;11.96;100.00;98050.81;5040767;28;20100;-77
2023/04/19 10:23:56;;;;;;;8.75;6.97;;;12.70;99.90;;;12.16;100.00;98048.22;5038716;28;20563;-76